sensor_id;sensor_type;location;lat;lon;timestamp;temperature;humidity
22491;DHT22;11412;50.802;4.350;2023-05-10T00:02:07;13.40;99.90
22491;DHT22;11412;50.802;4.350;2023-05-10T00:04:33;13.40;99.90
22491;DHT22;11412;50.802;4.350;2023-05-10T00:06:58;13.50;99.90
22491;DHT22;11412;50.802;4.350;2023-05-10T00:09:24;13.40;99.90
22491;DHT22;11412;50.802;4.350;2023-05-10T00:11:50;13.50;99.90
22491;DHT22;11412;50.802;4.350;2023-05-10T00:14:16;13.60;99.90
22491;DHT22;11412;50.802;4.350;2023-05-10T00:16:42;13.60;99.90
22491;DHT22;11412;50.802;4.350;2023-05-10T00:19:07;13.70;99.90
22491;DHT22;11412;50.802;4.350;2023-05-10T00:21:33;13.70;99.90
22491;DHT22;11412;50.802;4.350;2023-05-10T00:23:59;13.80;99.90
22491;DHT22;11412;50.802;4.350;2023-05-10T00:26:25;13.80;99.90
22491;DHT22;11412;50.802;4.350;2023-05-10T00:28:50;13.70;99.90
22491;DHT22;11412;50.802;4.350;2023-05-10T00:31:16;13.60;99.90
22491;DHT22;11412;50.802;4.350;2023-05-10T00:33:42;13.60;99.90
22491;DHT22;11412;50.802;4.350;2023-05-10T00:36:08;13.50;99.90
22491;DHT22;11412;50.802;4.350;2023-05-10T00:38:33;13.50;99.90
22491;DHT22;11412;50.802;4.350;2023-05-10T00:40:59;13.50;99.90
22491;DHT22;11412;50.802;4.350;2023-05-10T00:43:25;13.50;99.90
22491;DHT22;11412;50.802;4.350;2023-05-10T00:45:51;13.50;99.90
22491;DHT22;11412;50.802;4.350;2023-05-10T00:48:18;13.80;99.90
22491;DHT22;11412;50.802;4.350;2023-05-10T00:50:44;13.90;99.90
22491;DHT22;11412;50.802;4.350;2023-05-10T00:53:10;13.70;99.90
22491;DHT22;11412;50.802;4.350;2023-05-10T00:55:36;13.60;99.90
22491;DHT22;11412;50.802;4.350;2023-05-10T00:58:03;13.50;99.90
22491;DHT22;11412;50.802;4.350;2023-05-10T01:00:29;13.50;99.90
22491;DHT22;11412;50.802;4.350;2023-05-10T01:02:55;13.50;99.90
22491;DHT22;11412;50.802;4.350;2023-05-10T01:05:21;13.50;99.90
22491;DHT22;11412;50.802;4.350;2023-05-10T01:07:47;13.50;99.90
22491;DHT22;11412;50.802;4.350;2023-05-10T01:10:13;13.50;99.90
22491;DHT22;11412;50.802;4.350;2023-05-10T01:12:41;13.60;99.90
22491;DHT22;11412;50.802;4.350;2023-05-10T01:15:08;13.50;99.90
22491;DHT22;11412;50.802;4.350;2023-05-10T01:17:39;13.50;99.90
22491;DHT22;11412;50.802;4.350;2023-05-10T01:20:07;13.50;99.90
22491;DHT22;11412;50.802;4.350;2023-05-10T01:36:05;13.70;99.90
22491;DHT22;11412;50.802;4.350;2023-05-10T01:38:42;13.70;99.90
22491;DHT22;11412;50.802;4.350;2023-05-10T01:41:40;13.70;99.90
22491;DHT22;11412;50.802;4.350;2023-05-10T01:47:06;13.60;99.90
22491;DHT22;11412;50.802;4.350;2023-05-10T01:49:39;13.60;99.90
22491;DHT22;11412;50.802;4.350;2023-05-10T01:52:09;13.60;99.90
22491;DHT22;11412;50.802;4.350;2023-05-10T01:54:38;13.70;99.90
22491;DHT22;11412;50.802;4.350;2023-05-10T01:57:08;13.80;99.90
22491;DHT22;11412;50.802;4.350;2023-05-10T01:59:36;13.80;99.90
22491;DHT22;11412;50.802;4.350;2023-05-10T02:02:07;13.80;99.90
22491;DHT22;11412;50.802;4.350;2023-05-10T02:04:39;13.80;99.90
22491;DHT22;11412;50.802;4.350;2023-05-10T02:07:06;13.70;99.90
22491;DHT22;11412;50.802;4.350;2023-05-10T02:09:34;13.60;99.90
22491;DHT22;11412;50.802;4.350;2023-05-10T02:12:02;13.60;99.90
22491;DHT22;11412;50.802;4.350;2023-05-10T02:14:32;13.50;99.90
22491;DHT22;11412;50.802;4.350;2023-05-10T02:16:59;13.50;99.90
22491;DHT22;11412;50.802;4.350;2023-05-10T02:19:28;13.50;99.90
22491;DHT22;11412;50.802;4.350;2023-05-10T02:21:55;13.50;99.90
22491;DHT22;11412;50.802;4.350;2023-05-10T02:24:22;13.50;99.90
22491;DHT22;11412;50.802;4.350;2023-05-10T02:26:51;13.50;99.90
22491;DHT22;11412;50.802;4.350;2023-05-10T02:29:19;13.50;99.90
22491;DHT22;11412;50.802;4.350;2023-05-10T02:31:46;13.50;99.90
22491;DHT22;11412;50.802;4.350;2023-05-10T02:34:12;13.50;99.90
22491;DHT22;11412;50.802;4.350;2023-05-10T02:36:39;13.60;99.90
22491;DHT22;11412;50.802;4.350;2023-05-10T02:39:07;13.60;99.90
22491;DHT22;11412;50.802;4.350;2023-05-10T02:41:35;13.60;99.90
22491;DHT22;11412;50.802;4.350;2023-05-10T02:44:02;13.60;99.90
22491;DHT22;11412;50.802;4.350;2023-05-10T02:46:29;13.70;99.90
22491;DHT22;11412;50.802;4.350;2023-05-10T02:48:55;13.60;99.90
22491;DHT22;11412;50.802;4.350;2023-05-10T02:51:25;13.60;99.90
22491;DHT22;11412;50.802;4.350;2023-05-10T02:53:53;13.60;99.90
22491;DHT22;11412;50.802;4.350;2023-05-10T02:56:33;13.50;99.90
22491;DHT22;11412;50.802;4.350;2023-05-10T02:58:59;13.40;99.90
22491;DHT22;11412;50.802;4.350;2023-05-10T03:01:25;13.50;99.90
22491;DHT22;11412;50.802;4.350;2023-05-10T03:03:51;13.50;99.90
22491;DHT22;11412;50.802;4.350;2023-05-10T03:06:16;13.50;99.90
22491;DHT22;11412;50.802;4.350;2023-05-10T03:08:43;13.40;99.90
22491;DHT22;11412;50.802;4.350;2023-05-10T03:16:56;13.60;99.90
22491;DHT22;11412;50.802;4.350;2023-05-10T03:19:43;13.60;99.90
22491;DHT22;11412;50.802;4.350;2023-05-10T03:22:13;13.50;99.90
22491;DHT22;11412;50.802;4.350;2023-05-10T03:24:41;13.60;99.90
22491;DHT22;11412;50.802;4.350;2023-05-10T03:27:08;13.50;99.90
22491;DHT22;11412;50.802;4.350;2023-05-10T03:29:34;13.50;99.90
22491;DHT22;11412;50.802;4.350;2023-05-10T03:32:00;13.50;99.90
22491;DHT22;11412;50.802;4.350;2023-05-10T03:34:26;13.50;99.90
22491;DHT22;11412;50.802;4.350;2023-05-10T03:36:52;13.50;99.90
22491;DHT22;11412;50.802;4.350;2023-05-10T03:39:18;13.40;99.90
22491;DHT22;11412;50.802;4.350;2023-05-10T03:41:43;13.40;99.90
22491;DHT22;11412;50.802;4.350;2023-05-10T03:44:09;13.40;99.90
22491;DHT22;11412;50.802;4.350;2023-05-10T03:46:35;13.40;99.90
22491;DHT22;11412;50.802;4.350;2023-05-10T03:49:00;13.40;99.90
22491;DHT22;11412;50.802;4.350;2023-05-10T03:51:26;13.40;99.90
22491;DHT22;11412;50.802;4.350;2023-05-10T03:53:54;13.30;99.90
22491;DHT22;11412;50.802;4.350;2023-05-10T03:56:20;13.30;99.90
22491;DHT22;11412;50.802;4.350;2023-05-10T03:58:46;13.30;99.90
22491;DHT22;11412;50.802;4.350;2023-05-10T04:01:12;13.40;99.90
22491;DHT22;11412;50.802;4.350;2023-05-10T04:03:38;13.40;99.90
22491;DHT22;11412;50.802;4.350;2023-05-10T04:06:04;13.40;99.90
22491;DHT22;11412;50.802;4.350;2023-05-10T04:08:30;13.30;99.90
22491;DHT22;11412;50.802;4.350;2023-05-10T04:11:05;13.30;99.90
22491;DHT22;11412;50.802;4.350;2023-05-10T04:13:32;13.30;99.90
22491;DHT22;11412;50.802;4.350;2023-05-10T04:15:57;13.30;99.90
22491;DHT22;11412;50.802;4.350;2023-05-10T04:18:23;13.30;99.90
22491;DHT22;11412;50.802;4.350;2023-05-10T04:20:49;13.40;99.90
22491;DHT22;11412;50.802;4.350;2023-05-10T04:23:14;13.40;99.90
22491;DHT22;11412;50.802;4.350;2023-05-10T04:25:42;13.30;99.90
22491;DHT22;11412;50.802;4.350;2023-05-10T04:28:07;13.40;99.90
22491;DHT22;11412;50.802;4.350;2023-05-10T04:30:34;13.40;99.90
22491;DHT22;11412;50.802;4.350;2023-05-10T04:33:00;13.40;99.90
22491;DHT22;11412;50.802;4.350;2023-05-10T04:35:27;13.40;99.90
22491;DHT22;11412;50.802;4.350;2023-05-10T04:37:54;13.40;99.90
22491;DHT22;11412;50.802;4.350;2023-05-10T04:40:20;13.30;99.90
22491;DHT22;11412;50.802;4.350;2023-05-10T04:42:46;13.30;99.90
22491;DHT22;11412;50.802;4.350;2023-05-10T04:45:12;13.20;99.90
22491;DHT22;11412;50.802;4.350;2023-05-10T04:47:40;13.10;99.90
22491;DHT22;11412;50.802;4.350;2023-05-10T04:50:06;13.10;99.90
22491;DHT22;11412;50.802;4.350;2023-05-10T04:52:32;13.10;99.90
22491;DHT22;11412;50.802;4.350;2023-05-10T04:54:58;13.10;99.90
22491;DHT22;11412;50.802;4.350;2023-05-10T04:57:24;13.10;99.90
22491;DHT22;11412;50.802;4.350;2023-05-10T04:59:50;13.20;99.90
22491;DHT22;11412;50.802;4.350;2023-05-10T05:02:15;13.00;99.90
22491;DHT22;11412;50.802;4.350;2023-05-10T05:04:41;13.10;99.90
22491;DHT22;11412;50.802;4.350;2023-05-10T05:07:07;13.00;99.90
22491;DHT22;11412;50.802;4.350;2023-05-10T05:09:32;13.10;99.90
22491;DHT22;11412;50.802;4.350;2023-05-10T05:11:58;13.00;99.90
22491;DHT22;11412;50.802;4.350;2023-05-10T05:14:24;13.00;99.90
22491;DHT22;11412;50.802;4.350;2023-05-10T05:16:52;13.00;99.90
22491;DHT22;11412;50.802;4.350;2023-05-10T05:19:18;13.10;99.90
22491;DHT22;11412;50.802;4.350;2023-05-10T05:21:44;13.10;99.90
22491;DHT22;11412;50.802;4.350;2023-05-10T05:24:10;13.10;99.90
22491;DHT22;11412;50.802;4.350;2023-05-10T05:26:36;13.10;99.90
22491;DHT22;11412;50.802;4.350;2023-05-10T05:29:02;13.00;99.90
22491;DHT22;11412;50.802;4.350;2023-05-10T05:31:28;13.00;99.90
22491;DHT22;11412;50.802;4.350;2023-05-10T05:33:54;13.00;99.90
22491;DHT22;11412;50.802;4.350;2023-05-10T05:36:20;12.90;99.90
22491;DHT22;11412;50.802;4.350;2023-05-10T05:38:46;13.00;99.90
22491;DHT22;11412;50.802;4.350;2023-05-10T05:41:12;13.00;99.90
22491;DHT22;11412;50.802;4.350;2023-05-10T05:43:38;13.00;99.90
22491;DHT22;11412;50.802;4.350;2023-05-10T05:46:03;13.00;99.90
22491;DHT22;11412;50.802;4.350;2023-05-10T05:48:30;12.90;99.90
22491;DHT22;11412;50.802;4.350;2023-05-10T05:50:57;13.00;99.90
22491;DHT22;11412;50.802;4.350;2023-05-10T05:53:23;12.80;99.90
22491;DHT22;11412;50.802;4.350;2023-05-10T05:55:52;13.00;99.90
22491;DHT22;11412;50.802;4.350;2023-05-10T05:58:19;12.80;99.90
22491;DHT22;11412;50.802;4.350;2023-05-10T06:00:45;12.70;99.90
22491;DHT22;11412;50.802;4.350;2023-05-10T06:03:11;12.80;99.90
22491;DHT22;11412;50.802;4.350;2023-05-10T06:05:37;12.90;99.90
22491;DHT22;11412;50.802;4.350;2023-05-10T06:08:03;12.90;99.90
22491;DHT22;11412;50.802;4.350;2023-05-10T06:10:29;12.70;99.90
22491;DHT22;11412;50.802;4.350;2023-05-10T06:12:56;12.70;99.90
22491;DHT22;11412;50.802;4.350;2023-05-10T06:15:21;12.80;99.90
22491;DHT22;11412;50.802;4.350;2023-05-10T06:17:47;12.80;99.90
22491;DHT22;11412;50.802;4.350;2023-05-10T06:20:15;12.70;99.90
22491;DHT22;11412;50.802;4.350;2023-05-10T06:22:41;12.80;99.90
22491;DHT22;11412;50.802;4.350;2023-05-10T06:25:07;12.80;99.90
22491;DHT22;11412;50.802;4.350;2023-05-10T06:27:33;13.00;99.90
22491;DHT22;11412;50.802;4.350;2023-05-10T06:29:59;12.80;99.90
22491;DHT22;11412;50.802;4.350;2023-05-10T06:32:25;12.80;99.90
22491;DHT22;11412;50.802;4.350;2023-05-10T06:34:51;12.70;99.90
22491;DHT22;11412;50.802;4.350;2023-05-10T06:37:17;12.80;99.90
22491;DHT22;11412;50.802;4.350;2023-05-10T06:39:43;12.90;99.90
22491;DHT22;11412;50.802;4.350;2023-05-10T06:42:08;13.00;99.90
22491;DHT22;11412;50.802;4.350;2023-05-10T06:44:34;13.10;99.90
22491;DHT22;11412;50.802;4.350;2023-05-10T06:47:00;13.00;99.90
22491;DHT22;11412;50.802;4.350;2023-05-10T06:49:26;13.10;99.90
22491;DHT22;11412;50.802;4.350;2023-05-10T06:51:51;13.00;99.90
22491;DHT22;11412;50.802;4.350;2023-05-10T06:54:17;13.00;99.90
22491;DHT22;11412;50.802;4.350;2023-05-10T06:56:43;12.90;99.90
22491;DHT22;11412;50.802;4.350;2023-05-10T06:59:09;13.10;99.90
22491;DHT22;11412;50.802;4.350;2023-05-10T07:01:35;13.10;99.90
22491;DHT22;11412;50.802;4.350;2023-05-10T07:04:01;12.90;99.90
22491;DHT22;11412;50.802;4.350;2023-05-10T07:06:26;12.80;99.90
22491;DHT22;11412;50.802;4.350;2023-05-10T07:08:52;12.90;99.90
22491;DHT22;11412;50.802;4.350;2023-05-10T07:11:18;12.70;99.90
22491;DHT22;11412;50.802;4.350;2023-05-10T07:13:44;12.70;99.90
22491;DHT22;11412;50.802;4.350;2023-05-10T07:16:11;12.60;99.90
22491;DHT22;11412;50.802;4.350;2023-05-10T07:18:37;12.80;99.90
22491;DHT22;11412;50.802;4.350;2023-05-10T07:21:03;12.90;99.90
22491;DHT22;11412;50.802;4.350;2023-05-10T07:23:29;13.00;99.90
22491;DHT22;11412;50.802;4.350;2023-05-10T07:25:55;12.90;99.90
22491;DHT22;11412;50.802;4.350;2023-05-10T07:28:23;12.90;99.90
22491;DHT22;11412;50.802;4.350;2023-05-10T07:30:49;12.90;99.90
22491;DHT22;11412;50.802;4.350;2023-05-10T07:33:15;12.90;99.90
22491;DHT22;11412;50.802;4.350;2023-05-10T07:35:42;13.00;99.90
22491;DHT22;11412;50.802;4.350;2023-05-10T07:38:08;12.90;99.90
22491;DHT22;11412;50.802;4.350;2023-05-10T07:40:34;12.90;99.90
22491;DHT22;11412;50.802;4.350;2023-05-10T07:42:59;12.80;99.90
22491;DHT22;11412;50.802;4.350;2023-05-10T07:45:27;13.00;99.90
22491;DHT22;11412;50.802;4.350;2023-05-10T07:47:53;12.90;99.90
22491;DHT22;11412;50.802;4.350;2023-05-10T07:50:18;12.90;99.90
22491;DHT22;11412;50.802;4.350;2023-05-10T07:52:44;12.70;99.90
22491;DHT22;11412;50.802;4.350;2023-05-10T07:55:10;12.70;99.90
22491;DHT22;11412;50.802;4.350;2023-05-10T07:57:36;12.90;99.90
22491;DHT22;11412;50.802;4.350;2023-05-10T08:00:02;12.80;99.90
22491;DHT22;11412;50.802;4.350;2023-05-10T08:02:28;12.90;99.90
22491;DHT22;11412;50.802;4.350;2023-05-10T08:04:54;12.90;99.90
22491;DHT22;11412;50.802;4.350;2023-05-10T08:07:21;13.00;99.90
22491;DHT22;11412;50.802;4.350;2023-05-10T08:09:47;13.10;99.90
22491;DHT22;11412;50.802;4.350;2023-05-10T08:12:12;13.10;99.90
22491;DHT22;11412;50.802;4.350;2023-05-10T08:14:38;13.00;99.90
22491;DHT22;11412;50.802;4.350;2023-05-10T08:17:04;13.10;99.90
22491;DHT22;11412;50.802;4.350;2023-05-10T08:19:30;13.10;99.90
22491;DHT22;11412;50.802;4.350;2023-05-10T08:21:56;13.20;99.90
22491;DHT22;11412;50.802;4.350;2023-05-10T08:24:22;13.20;99.90
22491;DHT22;11412;50.802;4.350;2023-05-10T08:26:48;13.10;99.90
22491;DHT22;11412;50.802;4.350;2023-05-10T08:29:14;13.20;99.90
22491;DHT22;11412;50.802;4.350;2023-05-10T08:31:40;13.30;99.90
22491;DHT22;11412;50.802;4.350;2023-05-10T08:34:06;13.30;99.90
22491;DHT22;11412;50.802;4.350;2023-05-10T08:36:31;13.40;99.90
22491;DHT22;11412;50.802;4.350;2023-05-10T08:38:57;13.40;99.90
22491;DHT22;11412;50.802;4.350;2023-05-10T08:41:24;13.40;99.90
22491;DHT22;11412;50.802;4.350;2023-05-10T08:43:52;13.30;99.90
22491;DHT22;11412;50.802;4.350;2023-05-10T08:46:19;13.50;99.90
22491;DHT22;11412;50.802;4.350;2023-05-10T08:48:46;13.70;99.90
22491;DHT22;11412;50.802;4.350;2023-05-10T08:51:18;13.80;99.90
22491;DHT22;11412;50.802;4.350;2023-05-10T08:53:44;13.70;99.90
22491;DHT22;11412;50.802;4.350;2023-05-10T08:56:10;13.70;99.90
22491;DHT22;11412;50.802;4.350;2023-05-10T08:58:37;13.50;99.90
22491;DHT22;11412;50.802;4.350;2023-05-10T09:01:03;13.40;99.90
22491;DHT22;11412;50.802;4.350;2023-05-10T09:03:31;13.60;99.90
22491;DHT22;11412;50.802;4.350;2023-05-10T09:05:57;13.40;99.90
22491;DHT22;11412;50.802;4.350;2023-05-10T09:08:24;13.50;99.90
22491;DHT22;11412;50.802;4.350;2023-05-10T09:10:53;13.50;99.90
22491;DHT22;11412;50.802;4.350;2023-05-10T09:13:21;13.40;99.90
22491;DHT22;11412;50.802;4.350;2023-05-10T09:15:47;13.40;99.90
22491;DHT22;11412;50.802;4.350;2023-05-10T09:18:13;13.30;99.90
22491;DHT22;11412;50.802;4.350;2023-05-10T09:20:40;13.30;99.90
22491;DHT22;11412;50.802;4.350;2023-05-10T09:23:06;13.30;99.90
22491;DHT22;11412;50.802;4.350;2023-05-10T09:25:32;13.30;99.90
22491;DHT22;11412;50.802;4.350;2023-05-10T09:27:59;13.40;99.90
22491;DHT22;11412;50.802;4.350;2023-05-10T09:30:30;13.50;99.90
22491;DHT22;11412;50.802;4.350;2023-05-10T09:32:57;13.50;99.90
22491;DHT22;11412;50.802;4.350;2023-05-10T09:35:25;13.40;99.90
22491;DHT22;11412;50.802;4.350;2023-05-10T09:37:53;13.70;99.90
22491;DHT22;11412;50.802;4.350;2023-05-10T09:40:21;13.60;99.90
22491;DHT22;11412;50.802;4.350;2023-05-10T09:43:01;13.50;99.90
22491;DHT22;11412;50.802;4.350;2023-05-10T09:45:29;13.40;99.90
22491;DHT22;11412;50.802;4.350;2023-05-10T09:47:56;13.40;99.90
22491;DHT22;11412;50.802;4.350;2023-05-10T09:50:24;13.70;99.90
22491;DHT22;11412;50.802;4.350;2023-05-10T09:52:54;13.80;99.90
22491;DHT22;11412;50.802;4.350;2023-05-10T09:55:22;13.50;99.90
22491;DHT22;11412;50.802;4.350;2023-05-10T09:57:49;13.60;99.90
22491;DHT22;11412;50.802;4.350;2023-05-10T10:00:23;13.40;99.90
22491;DHT22;11412;50.802;4.350;2023-05-10T10:02:59;13.30;99.90
22491;DHT22;11412;50.802;4.350;2023-05-10T10:05:32;13.20;99.90
22491;DHT22;11412;50.802;4.350;2023-05-10T10:08:00;13.30;99.90
22491;DHT22;11412;50.802;4.350;2023-05-10T10:10:27;13.40;99.90
22491;DHT22;11412;50.802;4.350;2023-05-10T10:12:53;13.40;99.90
22491;DHT22;11412;50.802;4.350;2023-05-10T10:15:23;13.60;99.90
22491;DHT22;11412;50.802;4.350;2023-05-10T10:17:50;13.90;99.90
22491;DHT22;11412;50.802;4.350;2023-05-10T10:20:17;13.70;99.90
22491;DHT22;11412;50.802;4.350;2023-05-10T10:22:43;13.90;99.90
22491;DHT22;11412;50.802;4.350;2023-05-10T10:25:11;13.80;99.90
22491;DHT22;11412;50.802;4.350;2023-05-10T10:30:41;13.70;99.90
22491;DHT22;11412;50.802;4.350;2023-05-10T10:36:05;13.80;99.90
22491;DHT22;11412;50.802;4.350;2023-05-10T10:38:55;13.90;99.90
22491;DHT22;11412;50.802;4.350;2023-05-10T10:52:40;14.10;99.90
22491;DHT22;11412;50.802;4.350;2023-05-10T11:03:11;14.20;99.90
22491;DHT22;11412;50.802;4.350;2023-05-10T11:10:39;14.80;99.90
22491;DHT22;11412;50.802;4.350;2023-05-10T11:13:05;14.80;99.90
22491;DHT22;11412;50.802;4.350;2023-05-10T11:15:48;14.90;99.90
22491;DHT22;11412;50.802;4.350;2023-05-10T11:18:23;14.90;99.90
22491;DHT22;11412;50.802;4.350;2023-05-10T11:20:57;15.30;99.90
22491;DHT22;11412;50.802;4.350;2023-05-10T11:23:28;15.10;99.90
22491;DHT22;11412;50.802;4.350;2023-05-10T11:25:55;15.00;99.90
22491;DHT22;11412;50.802;4.350;2023-05-10T11:28:20;15.10;99.90
22491;DHT22;11412;50.802;4.350;2023-05-10T11:30:47;15.40;99.90
22491;DHT22;11412;50.802;4.350;2023-05-10T11:33:17;15.40;99.90
22491;DHT22;11412;50.802;4.350;2023-05-10T11:35:43;15.60;99.90
22491;DHT22;11412;50.802;4.350;2023-05-10T11:38:12;16.00;99.90
22491;DHT22;11412;50.802;4.350;2023-05-10T11:40:39;16.20;99.90
22491;DHT22;11412;50.802;4.350;2023-05-10T11:43:05;16.30;99.90
22491;DHT22;11412;50.802;4.350;2023-05-10T11:45:34;16.20;99.90
22491;DHT22;11412;50.802;4.350;2023-05-10T11:48:01;16.10;99.90
22491;DHT22;11412;50.802;4.350;2023-05-10T11:50:28;16.30;99.90
22491;DHT22;11412;50.802;4.350;2023-05-10T11:52:57;16.30;99.90
22491;DHT22;11412;50.802;4.350;2023-05-10T11:55:24;16.30;99.90
22491;DHT22;11412;50.802;4.350;2023-05-10T11:57:54;16.10;99.90
22491;DHT22;11412;50.802;4.350;2023-05-10T12:00:20;16.00;99.90
22491;DHT22;11412;50.802;4.350;2023-05-10T12:02:46;16.00;99.90
22491;DHT22;11412;50.802;4.350;2023-05-10T12:05:12;16.10;99.90
22491;DHT22;11412;50.802;4.350;2023-05-10T12:07:38;16.10;99.90
22491;DHT22;11412;50.802;4.350;2023-05-10T12:10:13;16.10;99.90
22491;DHT22;11412;50.802;4.350;2023-05-10T12:12:48;16.00;99.90
22491;DHT22;11412;50.802;4.350;2023-05-10T12:15:17;15.90;99.90
22491;DHT22;11412;50.802;4.350;2023-05-10T12:17:45;16.00;99.90
22491;DHT22;11412;50.802;4.350;2023-05-10T12:20:21;16.10;99.90
22491;DHT22;11412;50.802;4.350;2023-05-10T12:22:51;16.20;99.90
22491;DHT22;11412;50.802;4.350;2023-05-10T12:25:22;16.40;99.90
22491;DHT22;11412;50.802;4.350;2023-05-10T12:27:53;16.40;99.90
22491;DHT22;11412;50.802;4.350;2023-05-10T12:30:21;16.40;99.90
22491;DHT22;11412;50.802;4.350;2023-05-10T12:32:47;16.30;99.90
22491;DHT22;11412;50.802;4.350;2023-05-10T12:35:13;16.20;99.90
22491;DHT22;11412;50.802;4.350;2023-05-10T12:37:39;16.40;99.90
22491;DHT22;11412;50.802;4.350;2023-05-10T12:40:09;16.50;99.90
22491;DHT22;11412;50.802;4.350;2023-05-10T12:42:36;16.40;99.90
22491;DHT22;11412;50.802;4.350;2023-05-10T12:45:04;16.30;99.90
22491;DHT22;11412;50.802;4.350;2023-05-10T12:47:31;16.40;99.90
22491;DHT22;11412;50.802;4.350;2023-05-10T12:49:58;16.40;99.90
22491;DHT22;11412;50.802;4.350;2023-05-10T12:52:24;16.80;99.90
22491;DHT22;11412;50.802;4.350;2023-05-10T12:54:52;16.70;99.90
22491;DHT22;11412;50.802;4.350;2023-05-10T12:57:18;16.70;99.90
22491;DHT22;11412;50.802;4.350;2023-05-10T12:59:44;16.50;99.90
22491;DHT22;11412;50.802;4.350;2023-05-10T13:02:09;16.60;99.90
22491;DHT22;11412;50.802;4.350;2023-05-10T13:04:35;17.10;99.90
22491;DHT22;11412;50.802;4.350;2023-05-10T13:07:05;17.20;99.90
22491;DHT22;11412;50.802;4.350;2023-05-10T13:09:31;17.30;99.90
22491;DHT22;11412;50.802;4.350;2023-05-10T13:11:57;17.30;99.90
22491;DHT22;11412;50.802;4.350;2023-05-10T13:14:22;17.10;99.90
22491;DHT22;11412;50.802;4.350;2023-05-10T13:16:48;17.30;99.90
22491;DHT22;11412;50.802;4.350;2023-05-10T13:19:15;17.40;99.90
22491;DHT22;11412;50.802;4.350;2023-05-10T13:21:41;17.40;99.90
22491;DHT22;11412;50.802;4.350;2023-05-10T13:24:07;17.90;99.90
22491;DHT22;11412;50.802;4.350;2023-05-10T13:26:33;17.90;99.90
22491;DHT22;11412;50.802;4.350;2023-05-10T13:28:59;17.80;99.90
22491;DHT22;11412;50.802;4.350;2023-05-10T13:31:25;17.60;99.90
22491;DHT22;11412;50.802;4.350;2023-05-10T13:33:50;17.30;99.90
22491;DHT22;11412;50.802;4.350;2023-05-10T13:36:16;17.30;99.90
22491;DHT22;11412;50.802;4.350;2023-05-10T13:38:42;17.10;99.90
22491;DHT22;11412;50.802;4.350;2023-05-10T13:41:08;17.20;99.90
22491;DHT22;11412;50.802;4.350;2023-05-10T13:43:33;17.10;99.90
22491;DHT22;11412;50.802;4.350;2023-05-10T13:45:59;17.20;99.90
22491;DHT22;11412;50.802;4.350;2023-05-10T13:48:25;17.40;99.90
22491;DHT22;11412;50.802;4.350;2023-05-10T13:50:50;17.80;99.90
22491;DHT22;11412;50.802;4.350;2023-05-10T13:53:16;17.80;99.90
22491;DHT22;11412;50.802;4.350;2023-05-10T13:55:42;17.80;99.90
22491;DHT22;11412;50.802;4.350;2023-05-10T13:58:08;17.80;99.90
22491;DHT22;11412;50.802;4.350;2023-05-10T14:00:33;17.70;99.90
22491;DHT22;11412;50.802;4.350;2023-05-10T14:02:59;17.50;99.90
22491;DHT22;11412;50.802;4.350;2023-05-10T14:05:25;17.50;99.90
22491;DHT22;11412;50.802;4.350;2023-05-10T14:07:51;17.20;99.90
22491;DHT22;11412;50.802;4.350;2023-05-10T14:10:16;17.20;99.90
22491;DHT22;11412;50.802;4.350;2023-05-10T14:12:42;17.00;99.90
22491;DHT22;11412;50.802;4.350;2023-05-10T14:15:08;16.90;99.90
22491;DHT22;11412;50.802;4.350;2023-05-10T14:17:35;16.90;99.90
22491;DHT22;11412;50.802;4.350;2023-05-10T14:20:01;16.90;99.90
22491;DHT22;11412;50.802;4.350;2023-05-10T14:22:27;16.90;99.90
22491;DHT22;11412;50.802;4.350;2023-05-10T14:24:53;17.10;99.90
22491;DHT22;11412;50.802;4.350;2023-05-10T14:27:19;17.50;99.90
22491;DHT22;11412;50.802;4.350;2023-05-10T14:29:45;17.50;99.90
22491;DHT22;11412;50.802;4.350;2023-05-10T14:32:11;17.50;99.90
22491;DHT22;11412;50.802;4.350;2023-05-10T14:34:36;17.50;99.90
22491;DHT22;11412;50.802;4.350;2023-05-10T14:37:02;17.20;99.90
22491;DHT22;11412;50.802;4.350;2023-05-10T14:39:28;17.00;99.90
22491;DHT22;11412;50.802;4.350;2023-05-10T14:41:56;16.80;99.90
22491;DHT22;11412;50.802;4.350;2023-05-10T14:44:22;16.80;99.90
22491;DHT22;11412;50.802;4.350;2023-05-10T14:46:48;17.00;99.90
22491;DHT22;11412;50.802;4.350;2023-05-10T14:49:15;17.10;99.90
22491;DHT22;11412;50.802;4.350;2023-05-10T14:51:40;17.00;99.90
22491;DHT22;11412;50.802;4.350;2023-05-10T14:54:06;16.80;99.90
22491;DHT22;11412;50.802;4.350;2023-05-10T14:56:32;16.60;99.90
22491;DHT22;11412;50.802;4.350;2023-05-10T14:58:58;16.50;99.90
22491;DHT22;11412;50.802;4.350;2023-05-10T15:01:24;16.50;99.90
22491;DHT22;11412;50.802;4.350;2023-05-10T15:03:50;16.50;99.90
22491;DHT22;11412;50.802;4.350;2023-05-10T15:06:16;16.40;99.90
22491;DHT22;11412;50.802;4.350;2023-05-10T15:08:42;16.30;99.90
22491;DHT22;11412;50.802;4.350;2023-05-10T15:11:07;15.90;99.90
22491;DHT22;11412;50.802;4.350;2023-05-10T15:13:33;15.90;99.90
22491;DHT22;11412;50.802;4.350;2023-05-10T15:15:59;15.80;99.90
22491;DHT22;11412;50.802;4.350;2023-05-10T15:18:25;15.70;99.90
22491;DHT22;11412;50.802;4.350;2023-05-10T15:20:51;15.50;99.90
22491;DHT22;11412;50.802;4.350;2023-05-10T15:23:16;15.40;99.90
22491;DHT22;11412;50.802;4.350;2023-05-10T15:25:42;15.40;99.90
22491;DHT22;11412;50.802;4.350;2023-05-10T15:28:08;15.30;99.90
22491;DHT22;11412;50.802;4.350;2023-05-10T15:30:33;15.30;99.90
22491;DHT22;11412;50.802;4.350;2023-05-10T15:32:59;15.30;99.90
22491;DHT22;11412;50.802;4.350;2023-05-10T15:35:26;15.40;99.90
22491;DHT22;11412;50.802;4.350;2023-05-10T15:37:51;15.30;99.90
22491;DHT22;11412;50.802;4.350;2023-05-10T15:40:17;15.30;99.90
22491;DHT22;11412;50.802;4.350;2023-05-10T15:42:43;15.20;99.90
22491;DHT22;11412;50.802;4.350;2023-05-10T15:45:09;15.20;99.90
22491;DHT22;11412;50.802;4.350;2023-05-10T15:47:36;15.30;99.90
22491;DHT22;11412;50.802;4.350;2023-05-10T15:50:06;15.40;99.90
22491;DHT22;11412;50.802;4.350;2023-05-10T15:52:31;15.30;99.90
22491;DHT22;11412;50.802;4.350;2023-05-10T15:54:57;15.50;99.90
22491;DHT22;11412;50.802;4.350;2023-05-10T15:57:23;15.70;99.90
22491;DHT22;11412;50.802;4.350;2023-05-10T15:59:49;15.80;99.90
22491;DHT22;11412;50.802;4.350;2023-05-10T16:02:15;15.70;99.90
22491;DHT22;11412;50.802;4.350;2023-05-10T16:04:42;15.70;99.90
22491;DHT22;11412;50.802;4.350;2023-05-10T16:07:09;15.70;99.90
22491;DHT22;11412;50.802;4.350;2023-05-10T16:09:34;15.60;99.90
22491;DHT22;11412;50.802;4.350;2023-05-10T16:12:00;15.80;99.90
22491;DHT22;11412;50.802;4.350;2023-05-10T16:14:27;15.60;99.90
22491;DHT22;11412;50.802;4.350;2023-05-10T16:16:52;15.80;99.90
22491;DHT22;11412;50.802;4.350;2023-05-10T16:19:18;15.90;99.90
22491;DHT22;11412;50.802;4.350;2023-05-10T16:21:46;15.90;99.90